ADDS METAR Data INFO
IDs: Format: Raw Decoded Include TAF

Data at: 0042 UTC 27 Apr 2018

METAR for:KW22 (Buckhannon/Upshur Cn, WV, US)
Text:KW22 270035Z AUTO 00000KT 10SM SCT110 14/04 A2988 RMK AO2
Temperature: 14.0°C ( 57°F)
Dewpoint: 4.0°C ( 39°F) [RH = 51%]
Pressure (altimeter):29.88 inches Hg (1011.9 mb)
Winds:calm
Visibility:10 or more sm (16+ km)
Ceiling:at least 12,000 feet AGL
Clouds: scattered clouds at 11000 feet AGL
QC Flag:automated observation with no human augmentation
Text:KW22 270015Z AUTO 00000KT 10SM CLR 14/03 A2987 RMK AO2
Temperature: 14.0°C ( 57°F)
Dewpoint: 3.0°C ( 37°F) [RH = 47%]
Pressure (altimeter):29.87 inches Hg (1011.6 mb)
Winds:calm
Visibility:10 or more sm (16+ km)
Ceiling:at least 12,000 feet AGL
Clouds:sky clear below 12,000 feet AGL
QC Flag:automated observation with no human augmentation
Text:KW22 262355Z AUTO 00000KT 10SM CLR 14/03 A2986 RMK AO2
Temperature: 14.0°C ( 57°F)
Dewpoint: 3.0°C ( 37°F) [RH = 47%]
Pressure (altimeter):29.86 inches Hg (1011.3 mb)
Winds:calm
Visibility:10 or more sm (16+ km)
Ceiling:at least 12,000 feet AGL
Clouds:sky clear below 12,000 feet AGL
QC Flag:automated observation with no human augmentation
Text:KW22 262335Z AUTO 02004KT 10SM CLR 14/03 A2986 RMK AO2
Temperature: 14.0°C ( 57°F)
Dewpoint: 3.0°C ( 37°F) [RH = 47%]
Pressure (altimeter):29.86 inches Hg (1011.3 mb)
Winds:from the NNE (20 degrees) at 5 MPH (4 knots; 2.1 m/s)
Visibility:10 or more sm (16+ km)
Ceiling:at least 12,000 feet AGL
Clouds:sky clear below 12,000 feet AGL
QC Flag:automated observation with no human augmentation
Text:KW22 262315Z AUTO 03005KT 10SM CLR 14/03 A2985 RMK AO2
Temperature: 14.0°C ( 57°F)
Dewpoint: 3.0°C ( 37°F) [RH = 47%]
Pressure (altimeter):29.85 inches Hg (1010.9 mb)
Winds:from the NNE (30 degrees) at 6 MPH (5 knots; 2.6 m/s)
Visibility:10 or more sm (16+ km)
Ceiling:at least 12,000 feet AGL
Clouds:sky clear below 12,000 feet AGL
QC Flag:automated observation with no human augmentation
Text:KW22 262255Z AUTO 03004KT 10SM CLR 15/04 A2986 RMK AO2
Temperature: 15.0°C ( 59°F)
Dewpoint: 4.0°C ( 39°F) [RH = 48%]
Pressure (altimeter):29.86 inches Hg (1011.3 mb)
Winds:from the NNE (30 degrees) at 5 MPH (4 knots; 2.1 m/s)
Visibility:10 or more sm (16+ km)
Ceiling:at least 12,000 feet AGL
Clouds:sky clear below 12,000 feet AGL
QC Flag:automated observation with no human augmentation
Text:KW22 262235Z AUTO VRB04KT 10SM CLR 15/04 A2986 RMK AO2
Temperature: 15.0°C ( 59°F)
Dewpoint: 4.0°C ( 39°F) [RH = 48%]
Pressure (altimeter):29.86 inches Hg (1011.3 mb)
Winds:variable direction winds at 5 MPH (4 knots; 2.1 m/s)
Visibility:10 or more sm (16+ km)
Ceiling:at least 12,000 feet AGL
Clouds:sky clear below 12,000 feet AGL
QC Flag:automated observation with no human augmentation
Text:KW22 262215Z AUTO 36004KT 10SM CLR 15/04 A2986 RMK AO2
Temperature: 15.0°C ( 59°F)
Dewpoint: 4.0°C ( 39°F) [RH = 48%]
Pressure (altimeter):29.86 inches Hg (1011.3 mb)
Winds:from the N (360 degrees) at 5 MPH (4 knots; 2.1 m/s)
Visibility:10 or more sm (16+ km)
Ceiling:at least 12,000 feet AGL
Clouds:sky clear below 12,000 feet AGL
QC Flag:automated observation with no human augmentation
Text:KW22 262155Z AUTO 00000KT 10SM CLR 16/03 A2986 RMK AO2
Temperature: 16.0°C ( 61°F)
Dewpoint: 3.0°C ( 37°F) [RH = 42%]
Pressure (altimeter):29.86 inches Hg (1011.3 mb)
Winds:calm
Visibility:10 or more sm (16+ km)
Ceiling:at least 12,000 feet AGL
Clouds:sky clear below 12,000 feet AGL
QC Flag:automated observation with no human augmentation
Text:KW22 262135Z AUTO 00000KT 10SM CLR 16/04 A2986 RMK AO2
Temperature: 16.0°C ( 61°F)
Dewpoint: 4.0°C ( 39°F) [RH = 45%]
Pressure (altimeter):29.86 inches Hg (1011.3 mb)
Winds:calm
Visibility:10 or more sm (16+ km)
Ceiling:at least 12,000 feet AGL
Clouds:sky clear below 12,000 feet AGL
QC Flag:automated observation with no human augmentation
Text:KW22 262115Z AUTO VRB03KT 10SM CLR 16/04 A2986 RMK AO2
Temperature: 16.0°C ( 61°F)
Dewpoint: 4.0°C ( 39°F) [RH = 45%]
Pressure (altimeter):29.86 inches Hg (1011.3 mb)
Winds:variable direction winds at 3 MPH (3 knots; 1.5 m/s)
Visibility:10 or more sm (16+ km)
Ceiling:at least 12,000 feet AGL
Clouds:sky clear below 12,000 feet AGL
QC Flag:automated observation with no human augmentation
Text:KW22 262055Z AUTO 00000KT 10SM CLR 16/03 A2986 RMK AO2
Temperature: 16.0°C ( 61°F)
Dewpoint: 3.0°C ( 37°F) [RH = 42%]
Pressure (altimeter):29.86 inches Hg (1011.3 mb)
Winds:calm
Visibility:10 or more sm (16+ km)
Ceiling:at least 12,000 feet AGL
Clouds:sky clear below 12,000 feet AGL
QC Flag:automated observation with no human augmentation
Text:KW22 262035Z AUTO 00000KT 10SM CLR 16/03 A2986 RMK AO2
Temperature: 16.0°C ( 61°F)
Dewpoint: 3.0°C ( 37°F) [RH = 42%]
Pressure (altimeter):29.86 inches Hg (1011.3 mb)
Winds:calm
Visibility:10 or more sm (16+ km)
Ceiling:at least 12,000 feet AGL
Clouds:sky clear below 12,000 feet AGL
QC Flag:automated observation with no human augmentation
Text:KW22 262015Z AUTO 06005KT 10SM CLR 16/03 A2986 RMK AO2
Temperature: 16.0°C ( 61°F)
Dewpoint: 3.0°C ( 37°F) [RH = 42%]
Pressure (altimeter):29.86 inches Hg (1011.3 mb)
Winds:from the ENE (60 degrees) at 6 MPH (5 knots; 2.6 m/s)
Visibility:10 or more sm (16+ km)
Ceiling:at least 12,000 feet AGL
Clouds:sky clear below 12,000 feet AGL
QC Flag:automated observation with no human augmentation
Text:KW22 261955Z AUTO VRB05KT 10SM CLR 16/03 A2987 RMK AO2
Temperature: 16.0°C ( 61°F)
Dewpoint: 3.0°C ( 37°F) [RH = 42%]
Pressure (altimeter):29.87 inches Hg (1011.6 mb)
Winds:variable direction winds at 6 MPH (5 knots; 2.6 m/s)
Visibility:10 or more sm (16+ km)
Ceiling:at least 12,000 feet AGL
Clouds:sky clear below 12,000 feet AGL
QC Flag:automated observation with no human augmentation
Text:KW22 261935Z AUTO VRB04KT 10SM CLR 15/03 A2988 RMK AO2
Temperature: 15.0°C ( 59°F)
Dewpoint: 3.0°C ( 37°F) [RH = 44%]
Pressure (altimeter):29.88 inches Hg (1011.9 mb)
Winds:variable direction winds at 5 MPH (4 knots; 2.1 m/s)
Visibility:10 or more sm (16+ km)
Ceiling:at least 12,000 feet AGL
Clouds:sky clear below 12,000 feet AGL
QC Flag:automated observation with no human augmentation
Text:KW22 261915Z AUTO 00000KT 10SM CLR 14/03 A2989 RMK AO2
Temperature: 14.0°C ( 57°F)
Dewpoint: 3.0°C ( 37°F) [RH = 47%]
Pressure (altimeter):29.89 inches Hg (1012.3 mb)
Winds:calm
Visibility:10 or more sm (16+ km)
Ceiling:at least 12,000 feet AGL
Clouds:sky clear below 12,000 feet AGL
QC Flag:automated observation with no human augmentation
Text:KW22 261855Z AUTO 00000KT 10SM CLR 15/03 A2990 RMK AO2
Temperature: 15.0°C ( 59°F)
Dewpoint: 3.0°C ( 37°F) [RH = 44%]
Pressure (altimeter):29.90 inches Hg (1012.6 mb)
Winds:calm
Visibility:10 or more sm (16+ km)
Ceiling:at least 12,000 feet AGL
Clouds:sky clear below 12,000 feet AGL
QC Flag:automated observation with no human augmentation
Text:KW22 261835Z AUTO 00000KT 10SM CLR 14/02 A2991 RMK AO2
Temperature: 14.0°C ( 57°F)
Dewpoint: 2.0°C ( 36°F) [RH = 44%]
Pressure (altimeter):29.91 inches Hg (1013.0 mb)
Winds:calm
Visibility:10 or more sm (16+ km)
Ceiling:at least 12,000 feet AGL
Clouds:sky clear below 12,000 feet AGL
QC Flag:automated observation with no human augmentation
Text:KW22 261815Z AUTO 00000KT 10SM CLR 14/01 A2991 RMK AO2
Temperature: 14.0°C ( 57°F)
Dewpoint: 1.0°C ( 34°F) [RH = 41%]
Pressure (altimeter):29.91 inches Hg (1013.0 mb)
Winds:calm
Visibility:10 or more sm (16+ km)
Ceiling:at least 12,000 feet AGL
Clouds:sky clear below 12,000 feet AGL
QC Flag:automated observation with no human augmentation
Text:KW22 261755Z AUTO VRB04KT 10SM 14/02 A2991 RMK AO2
Temperature: 14.0°C ( 57°F)
Dewpoint: 2.0°C ( 36°F) [RH = 44%]
Pressure (altimeter):29.91 inches Hg (1013.0 mb)
Winds:variable direction winds at 5 MPH (4 knots; 2.1 m/s)
Visibility:10 or more sm (16+ km)
QC Flag:automated observation with no human augmentation
Text:KW22 261735Z AUTO VRB04KT 10SM 13/04 A2993 RMK AO2
Temperature: 13.0°C ( 55°F)
Dewpoint: 4.0°C ( 39°F) [RH = 54%]
Pressure (altimeter):29.93 inches Hg (1013.6 mb)
Winds:variable direction winds at 5 MPH (4 knots; 2.1 m/s)
Visibility:10 or more sm (16+ km)
QC Flag:automated observation with no human augmentation
Text:KW22 261715Z AUTO VRB06KT 10SM FEW038 14/05 A2994 RMK AO2
Temperature: 14.0°C ( 57°F)
Dewpoint: 5.0°C ( 41°F) [RH = 55%]
Pressure (altimeter):29.94 inches Hg (1014.0 mb)
Winds:variable direction winds at 7 MPH (6 knots; 3.1 m/s)
Visibility:10 or more sm (16+ km)
Ceiling:at least 12,000 feet AGL
Clouds: few clouds at 3800 feet AGL
QC Flag:automated observation with no human augmentation
Text:KW22 261655Z AUTO VRB03KT 10SM CLR 13/04 A2994 RMK AO2
Temperature: 13.0°C ( 55°F)
Dewpoint: 4.0°C ( 39°F) [RH = 54%]
Pressure (altimeter):29.94 inches Hg (1014.0 mb)
Winds:variable direction winds at 3 MPH (3 knots; 1.5 m/s)
Visibility:10 or more sm (16+ km)
Ceiling:at least 12,000 feet AGL
Clouds:sky clear below 12,000 feet AGL
QC Flag:automated observation with no human augmentation
Text:KW22 261635Z AUTO 34005G11KT 10SM CLR 13/04 A2995 RMK AO2
Temperature: 13.0°C ( 55°F)
Dewpoint: 4.0°C ( 39°F) [RH = 54%]
Pressure (altimeter):29.95 inches Hg (1014.3 mb)
Winds:from the NNW (340 degrees) at 6 MPH (5 knots; 2.6 m/s) gusting to 13 MPH (11 knots; 5.7 m/s)
Visibility:10 or more sm (16+ km)
Ceiling:at least 12,000 feet AGL
Clouds:sky clear below 12,000 feet AGL
QC Flag:automated observation with no human augmentation
Text:KW22 261615Z AUTO 24004KT 10SM FEW034 13/05 A2995 RMK AO2
Temperature: 13.0°C ( 55°F)
Dewpoint: 5.0°C ( 41°F) [RH = 58%]
Pressure (altimeter):29.95 inches Hg (1014.3 mb)
Winds:from the WSW (240 degrees) at 5 MPH (4 knots; 2.1 m/s)
Visibility:10 or more sm (16+ km)
Ceiling:at least 12,000 feet AGL
Clouds: few clouds at 3400 feet AGL
QC Flag:automated observation with no human augmentation
Text:KW22 261555Z AUTO 00000KT 10SM SCT032 12/04 A2995 RMK AO2
Temperature: 12.0°C ( 54°F)
Dewpoint: 4.0°C ( 39°F) [RH = 58%]
Pressure (altimeter):29.95 inches Hg (1014.3 mb)
Winds:calm
Visibility:10 or more sm (16+ km)
Ceiling:at least 12,000 feet AGL
Clouds: scattered clouds at 3200 feet AGL
QC Flag:automated observation with no human augmentation
Text:KW22 261530Z AUTO VRB04KT 10SM FEW031 12/05 A2996 RMK AO2
Temperature: 12.0°C ( 54°F)
Dewpoint: 5.0°C ( 41°F) [RH = 62%]
Pressure (altimeter):29.96 inches Hg (1014.6 mb)
Winds:variable direction winds at 5 MPH (4 knots; 2.1 m/s)
Visibility:10 or more sm (16+ km)
Ceiling:at least 12,000 feet AGL
Clouds: few clouds at 3100 feet AGL
QC Flag:automated observation with no human augmentation
Text:KW22 261515Z AUTO VRB05KT 10SM CLR 12/04 A2996 RMK AO2
Temperature: 12.0°C ( 54°F)
Dewpoint: 4.0°C ( 39°F) [RH = 58%]
Pressure (altimeter):29.96 inches Hg (1014.6 mb)
Winds:variable direction winds at 6 MPH (5 knots; 2.6 m/s)
Visibility:10 or more sm (16+ km)
Ceiling:at least 12,000 feet AGL
Clouds:sky clear below 12,000 feet AGL
QC Flag:automated observation with no human augmentation
Text:KW22 261455Z AUTO VRB03KT 10SM CLR 11/04 A2996 RMK AO2
Temperature: 11.0°C ( 52°F)
Dewpoint: 4.0°C ( 39°F) [RH = 62%]
Pressure (altimeter):29.96 inches Hg (1014.6 mb)
Winds:variable direction winds at 3 MPH (3 knots; 1.5 m/s)
Visibility:10 or more sm (16+ km)
Ceiling:at least 12,000 feet AGL
Clouds:sky clear below 12,000 feet AGL
QC Flag:automated observation with no human augmentation
Text:KW22 261435Z AUTO 00000KT 10SM CLR 10/03 A2995 RMK AO2
Temperature: 10.0°C ( 50°F)
Dewpoint: 3.0°C ( 37°F) [RH = 62%]
Pressure (altimeter):29.95 inches Hg (1014.3 mb)
Winds:calm
Visibility:10 or more sm (16+ km)
Ceiling:at least 12,000 feet AGL
Clouds:sky clear below 12,000 feet AGL
QC Flag:automated observation with no human augmentation
Text:KW22 261415Z AUTO 00000KT 10SM CLR 10/03 A2994 RMK AO2
Temperature: 10.0°C ( 50°F)
Dewpoint: 3.0°C ( 37°F) [RH = 62%]
Pressure (altimeter):29.94 inches Hg (1014.0 mb)
Winds:calm
Visibility:10 or more sm (16+ km)
Ceiling:at least 12,000 feet AGL
Clouds:sky clear below 12,000 feet AGL
QC Flag:automated observation with no human augmentation
Text:KW22 261355Z AUTO 00000KT 10SM CLR 09/03 A2994 RMK AO2
Temperature: 9.0°C ( 48°F)
Dewpoint: 3.0°C ( 37°F) [RH = 66%]
Pressure (altimeter):29.94 inches Hg (1014.0 mb)
Winds:calm
Visibility:10 or more sm (16+ km)
Ceiling:at least 12,000 feet AGL
Clouds:sky clear below 12,000 feet AGL
QC Flag:automated observation with no human augmentation
Text:KW22 261335Z AUTO 07004KT 10SM SCT025 09/03 A2994 RMK AO2
Temperature: 9.0°C ( 48°F)
Dewpoint: 3.0°C ( 37°F) [RH = 66%]
Pressure (altimeter):29.94 inches Hg (1014.0 mb)
Winds:from the ENE (70 degrees) at 5 MPH (4 knots; 2.1 m/s)
Visibility:10 or more sm (16+ km)
Ceiling:at least 12,000 feet AGL
Clouds: scattered clouds at 2500 feet AGL
QC Flag:automated observation with no human augmentation
Text:KW22 261315Z AUTO 06004KT 10SM BKN026 07/05 A2994 RMK AO2
Temperature: 7.0°C ( 45°F)
Dewpoint: 5.0°C ( 41°F) [RH = 87%]
Pressure (altimeter):29.94 inches Hg (1014.0 mb)
Winds:from the ENE (60 degrees) at 5 MPH (4 knots; 2.1 m/s)
Visibility:10 or more sm (16+ km)
Ceiling:2600 feet AGL
Clouds: broken clouds at 2600 feet AGL
QC Flag:automated observation with no human augmentation
Text:KW22 261255Z AUTO 00000KT 9SM OVC026 06/06 A2994 RMK AO2
Temperature: 6.0°C ( 43°F)
Dewpoint: 6.0°C ( 43°F) [RH = 100%]
Pressure (altimeter):29.94 inches Hg (1014.0 mb)
Winds:calm
Visibility: 9 sm ( 14 km)
Ceiling:2600 feet AGL
Clouds: overcast cloud deck at 2600 feet AGL
QC Flag:automated observation with no human augmentation
Text:KW22 261235Z AUTO 00000KT 4SM BR OVC026 06/06 A2995 RMK AO2
Temperature: 6.0°C ( 43°F)
Dewpoint: 6.0°C ( 43°F) [RH = 100%]
Pressure (altimeter):29.95 inches Hg (1014.3 mb)
Winds:calm
Visibility: 4 sm ( 6 km)
Ceiling:2600 feet AGL
Clouds: overcast cloud deck at 2600 feet AGL
Weather:BR (mist)
QC Flag:automated observation with no human augmentation
Text:KW22 261215Z AUTO 00000KT 6SM BR OVC027 05/05 A2995 RMK AO2
Temperature: 5.0°C ( 41°F)
Dewpoint: 5.0°C ( 41°F) [RH = 100%]
Pressure (altimeter):29.95 inches Hg (1014.3 mb)
Winds:calm
Visibility: 6 sm ( 10 km)
Ceiling:2700 feet AGL
Clouds: overcast cloud deck at 2700 feet AGL
Weather:BR (mist)
QC Flag:automated observation with no human augmentation
Text:KW22 261155Z AUTO 18003KT 2SM BR BKN027 BKN033 05/05 A2993 RMK AO2
Temperature: 5.0°C ( 41°F)
Dewpoint: 5.0°C ( 41°F) [RH = 100%]
Pressure (altimeter):29.93 inches Hg (1013.6 mb)
Winds:from the S (180 degrees) at 3 MPH (3 knots; 1.5 m/s)
Visibility: 2.00 sm ( 3.22 km)
Ceiling:2700 feet AGL
Clouds: broken clouds at 2700 feet AGL, broken clouds at 3300 feet AGL
Weather:BR (mist)
QC Flag:automated observation with no human augmentation
Text:KW22 261135Z AUTO 00000KT 2SM BR FEW025 OVC034 04/04 A2992 RMK AO2
Temperature: 4.0°C ( 39°F)
Dewpoint: 4.0°C ( 39°F) [RH = 100%]
Pressure (altimeter):29.92 inches Hg (1013.3 mb)
Winds:calm
Visibility: 2.00 sm ( 3.22 km)
Ceiling:3400 feet AGL
Clouds: few clouds at 2500 feet AGL, overcast cloud deck at 3400 feet AGL
Weather:BR (mist)
QC Flag:automated observation with no human augmentation
Text:KW22 261115Z AUTO 00000KT 2SM BR FEW028 OVC034 04/04 A2992 RMK AO2
Temperature: 4.0°C ( 39°F)
Dewpoint: 4.0°C ( 39°F) [RH = 100%]
Pressure (altimeter):29.92 inches Hg (1013.3 mb)
Winds:calm
Visibility: 2.00 sm ( 3.22 km)
Ceiling:3400 feet AGL
Clouds: few clouds at 2800 feet AGL, overcast cloud deck at 3400 feet AGL
Weather:BR (mist)
QC Flag:automated observation with no human augmentation
Text:KW22 261055Z AUTO 00000KT 3/4SM BR OVC034 04/04 A2991 RMK AO2
Temperature: 4.0°C ( 39°F)
Dewpoint: 4.0°C ( 39°F) [RH = 100%]
Pressure (altimeter):29.91 inches Hg (1013.0 mb)
Winds:calm
Visibility: 0.75 sm ( 1.21 km)
Ceiling:3400 feet AGL
Clouds: overcast cloud deck at 3400 feet AGL
Weather:BR (mist)
QC Flag:automated observation with no human augmentation
Text:KW22 261035Z AUTO 00000KT M1/4SM FG OVC032 04/04 A2991 RMK AO2
Temperature: 4.0°C ( 39°F)
Dewpoint: 4.0°C ( 39°F) [RH = 100%]
Pressure (altimeter):29.91 inches Hg (1013.0 mb)
Winds:calm
Visibility: 0.25 sm ( 0.40 km)
Ceiling:3200 feet AGL
Clouds: overcast cloud deck at 3200 feet AGL
Weather:FG (fog)
QC Flag:automated observation with no human augmentation
Text:KW22 261015Z AUTO 00000KT 3SM BR OVC031 04/04 A2989 RMK AO2
Temperature: 4.0°C ( 39°F)
Dewpoint: 4.0°C ( 39°F) [RH = 100%]
Pressure (altimeter):29.89 inches Hg (1012.3 mb)
Winds:calm
Visibility: 3 sm ( 5 km)
Ceiling:3100 feet AGL
Clouds: overcast cloud deck at 3100 feet AGL
Weather:BR (mist)
QC Flag:automated observation with no human augmentation
Text:KW22 260955Z AUTO 00000KT 2 1/2SM BR OVC032 04/04 A2989 RMK AO2
Temperature: 4.0°C ( 39°F)
Dewpoint: 4.0°C ( 39°F) [RH = 100%]
Pressure (altimeter):29.89 inches Hg (1012.3 mb)
Winds:calm
Visibility: 2.50 sm ( 4.02 km)
Ceiling:3200 feet AGL
Clouds: overcast cloud deck at 3200 feet AGL
Weather:BR (mist)
QC Flag:automated observation with no human augmentation
Text:KW22 260935Z AUTO 00000KT 2 1/2SM BR OVC032 04/04 A2989 RMK AO2 VIS 1 1/4V5
Temperature: 4.0°C ( 39°F)
Dewpoint: 4.0°C ( 39°F) [RH = 100%]
Pressure (altimeter):29.89 inches Hg (1012.3 mb)
Winds:calm
Visibility: 2.50 sm ( 4.02 km)
Ceiling:3200 feet AGL
Clouds: overcast cloud deck at 3200 feet AGL
Weather:BR (mist)
QC Flag:automated observation with no human augmentation
Text:KW22 260915Z AUTO 00000KT 2 1/2SM BR OVC035 04/04 A2989 RMK AO2
Temperature: 4.0°C ( 39°F)
Dewpoint: 4.0°C ( 39°F) [RH = 100%]
Pressure (altimeter):29.89 inches Hg (1012.3 mb)
Winds:calm
Visibility: 2.50 sm ( 4.02 km)
Ceiling:3500 feet AGL
Clouds: overcast cloud deck at 3500 feet AGL
Weather:BR (mist)
QC Flag:automated observation with no human augmentation
Text:KW22 260855Z AUTO 00000KT 7SM OVC036 05/05 A2989 RMK AO2
Temperature: 5.0°C ( 41°F)
Dewpoint: 5.0°C ( 41°F) [RH = 100%]
Pressure (altimeter):29.89 inches Hg (1012.3 mb)
Winds:calm
Visibility: 7 sm ( 11 km)
Ceiling:3600 feet AGL
Clouds: overcast cloud deck at 3600 feet AGL
QC Flag:automated observation with no human augmentation
Text:KW22 260835Z AUTO 00000KT 4SM BR OVC034 04/04 A2989 RMK AO2
Temperature: 4.0°C ( 39°F)
Dewpoint: 4.0°C ( 39°F) [RH = 100%]
Pressure (altimeter):29.89 inches Hg (1012.3 mb)
Winds:calm
Visibility: 4 sm ( 6 km)
Ceiling:3400 feet AGL
Clouds: overcast cloud deck at 3400 feet AGL
Weather:BR (mist)
QC Flag:automated observation with no human augmentation
Text:KW22 260815Z AUTO 00000KT 9SM OVC035 05/05 A2989 RMK AO2
Temperature: 5.0°C ( 41°F)
Dewpoint: 5.0°C ( 41°F) [RH = 100%]
Pressure (altimeter):29.89 inches Hg (1012.3 mb)
Winds:calm
Visibility: 9 sm ( 14 km)
Ceiling:3500 feet AGL
Clouds: overcast cloud deck at 3500 feet AGL
QC Flag:automated observation with no human augmentation
Text:KW22 260800Z AUTO 00000KT 8SM OVC036 05/05 A2989 RMK AO2
Temperature: 5.0°C ( 41°F)
Dewpoint: 5.0°C ( 41°F) [RH = 100%]
Pressure (altimeter):29.89 inches Hg (1012.3 mb)
Winds:calm
Visibility: 8 sm ( 13 km)
Ceiling:3600 feet AGL
Clouds: overcast cloud deck at 3600 feet AGL
QC Flag:automated observation with no human augmentation
Text:KW22 260735Z AUTO 00000KT 3SM BR BKN035 05/05 A2989 RMK AO2
Temperature: 5.0°C ( 41°F)
Dewpoint: 5.0°C ( 41°F) [RH = 100%]
Pressure (altimeter):29.89 inches Hg (1012.3 mb)
Winds:calm
Visibility: 3 sm ( 5 km)
Ceiling:3500 feet AGL
Clouds: broken clouds at 3500 feet AGL
Weather:BR (mist)
QC Flag:automated observation with no human augmentation
Text:KW22 260715Z AUTO 00000KT 10SM FEW029 BKN036 05/05 A2989 RMK AO2
Temperature: 5.0°C ( 41°F)
Dewpoint: 5.0°C ( 41°F) [RH = 100%]
Pressure (altimeter):29.89 inches Hg (1012.3 mb)
Winds:calm
Visibility:10 or more sm (16+ km)
Ceiling:3600 feet AGL
Clouds: few clouds at 2900 feet AGL, broken clouds at 3600 feet AGL
QC Flag:automated observation with no human augmentation
Text:KW22 260655Z AUTO 00000KT 10SM SCT033 SCT038 06/05 A2989 RMK AO2
Temperature: 6.0°C ( 43°F)
Dewpoint: 5.0°C ( 41°F) [RH = 93%]
Pressure (altimeter):29.89 inches Hg (1012.3 mb)
Winds:calm
Visibility:10 or more sm (16+ km)
Ceiling:at least 12,000 feet AGL
Clouds: scattered clouds at 3300 feet AGL, scattered clouds at 3800 feet AGL
QC Flag:automated observation with no human augmentation
Text:KW22 260635Z AUTO 00000KT 7SM FEW035 05/05 A2990 RMK AO2
Temperature: 5.0°C ( 41°F)
Dewpoint: 5.0°C ( 41°F) [RH = 100%]
Pressure (altimeter):29.90 inches Hg (1012.6 mb)
Winds:calm
Visibility: 7 sm ( 11 km)
Ceiling:at least 12,000 feet AGL
Clouds: few clouds at 3500 feet AGL
QC Flag:automated observation with no human augmentation
Text:KW22 260615Z AUTO 00000KT 10SM FEW035 06/05 A2990 RMK AO2
Temperature: 6.0°C ( 43°F)
Dewpoint: 5.0°C ( 41°F) [RH = 93%]
Pressure (altimeter):29.90 inches Hg (1012.6 mb)
Winds:calm
Visibility:10 or more sm (16+ km)
Ceiling:at least 12,000 feet AGL
Clouds: few clouds at 3500 feet AGL
QC Flag:automated observation with no human augmentation
Text:KW22 260555Z AUTO 00000KT 10SM FEW034 07/05 A2990 RMK AO2
Temperature: 7.0°C ( 45°F)
Dewpoint: 5.0°C ( 41°F) [RH = 87%]
Pressure (altimeter):29.90 inches Hg (1012.6 mb)
Winds:calm
Visibility:10 or more sm (16+ km)
Ceiling:at least 12,000 feet AGL
Clouds: few clouds at 3400 feet AGL
QC Flag:automated observation with no human augmentation
Text:KW22 260535Z AUTO 00000KT 10SM FEW034 07/04 A2990 RMK AO2
Temperature: 7.0°C ( 45°F)
Dewpoint: 4.0°C ( 39°F) [RH = 81%]
Pressure (altimeter):29.90 inches Hg (1012.6 mb)
Winds:calm
Visibility:10 or more sm (16+ km)
Ceiling:at least 12,000 feet AGL
Clouds: few clouds at 3400 feet AGL
QC Flag:automated observation with no human augmentation
Text:KW22 260515Z AUTO 00000KT 10SM FEW034 07/05 A2990 RMK AO2
Temperature: 7.0°C ( 45°F)
Dewpoint: 5.0°C ( 41°F) [RH = 87%]
Pressure (altimeter):29.90 inches Hg (1012.6 mb)
Winds:calm
Visibility:10 or more sm (16+ km)
Ceiling:at least 12,000 feet AGL
Clouds: few clouds at 3400 feet AGL
QC Flag:automated observation with no human augmentation
Text:KW22 260455Z AUTO 03003KT 10SM CLR 07/05 A2990 RMK AO2
Temperature: 7.0°C ( 45°F)
Dewpoint: 5.0°C ( 41°F) [RH = 87%]
Pressure (altimeter):29.90 inches Hg (1012.6 mb)
Winds:from the NNE (30 degrees) at 3 MPH (3 knots; 1.5 m/s)
Visibility:10 or more sm (16+ km)
Ceiling:at least 12,000 feet AGL
Clouds:sky clear below 12,000 feet AGL
QC Flag:automated observation with no human augmentation
Text:KW22 260435Z AUTO 01005KT 10SM CLR 07/06 A2990 RMK AO2
Temperature: 7.0°C ( 45°F)
Dewpoint: 6.0°C ( 43°F) [RH = 93%]
Pressure (altimeter):29.90 inches Hg (1012.6 mb)
Winds:from the N (10 degrees) at 6 MPH (5 knots; 2.6 m/s)
Visibility:10 or more sm (16+ km)
Ceiling:at least 12,000 feet AGL
Clouds:sky clear below 12,000 feet AGL
QC Flag:automated observation with no human augmentation
Text:KW22 260415Z AUTO 02006KT 10SM FEW047 08/06 A2990 RMK AO2
Temperature: 8.0°C ( 46°F)
Dewpoint: 6.0°C ( 43°F) [RH = 87%]
Pressure (altimeter):29.90 inches Hg (1012.6 mb)
Winds:from the NNE (20 degrees) at 7 MPH (6 knots; 3.1 m/s)
Visibility:10 or more sm (16+ km)
Ceiling:at least 12,000 feet AGL
Clouds: few clouds at 4700 feet AGL
QC Flag:automated observation with no human augmentation
Text:KW22 260355Z AUTO 01005G10KT 10SM FEW015 SCT022 BKN046 08/07 A2990 RMK AO2
Temperature: 8.0°C ( 46°F)
Dewpoint: 7.0°C ( 45°F) [RH = 93%]
Pressure (altimeter):29.90 inches Hg (1012.6 mb)
Winds:from the N (10 degrees) at 6 MPH (5 knots; 2.6 m/s) gusting to 12 MPH (10 knots; 5.1 m/s)
Visibility:10 or more sm (16+ km)
Ceiling:4600 feet AGL
Clouds: few clouds at 1500 feet AGL, scattered clouds at 2200 feet AGL, broken clouds at 4600 feet AGL
QC Flag:automated observation with no human augmentation
Text:KW22 260335Z AUTO 35008KT 10SM FEW016 SCT031 BKN036 09/07 A2990 RMK AO2
Temperature: 9.0°C ( 48°F)
Dewpoint: 7.0°C ( 45°F) [RH = 87%]
Pressure (altimeter):29.90 inches Hg (1012.6 mb)
Winds:from the N (350 degrees) at 9 MPH (8 knots; 4.1 m/s)
Visibility:10 or more sm (16+ km)
Ceiling:3600 feet AGL
Clouds: few clouds at 1600 feet AGL, scattered clouds at 3100 feet AGL, broken clouds at 3600 feet AGL
QC Flag:automated observation with no human augmentation
Text:KW22 260315Z AUTO 36007G13KT 320V030 10SM SCT017 SCT022 BKN032 09/07 A2990 RMK AO2
Temperature: 9.0°C ( 48°F)
Dewpoint: 7.0°C ( 45°F) [RH = 87%]
Pressure (altimeter):29.90 inches Hg (1012.6 mb)
Winds:from the N (360 degrees) at 8 MPH (7 knots; 3.6 m/s) gusting to 15 MPH (13 knots; 6.7 m/s)
Visibility:10 or more sm (16+ km)
Ceiling:3200 feet AGL
Clouds: scattered clouds at 1700 feet AGL, scattered clouds at 2200 feet AGL, broken clouds at 3200 feet AGL
QC Flag:automated observation with no human augmentation
Text:KW22 260255Z AUTO 01008G14KT 10SM BKN017 BKN024 OVC041 10/08 A2990 RMK AO2
Temperature: 10.0°C ( 50°F)
Dewpoint: 8.0°C ( 46°F) [RH = 87%]
Pressure (altimeter):29.90 inches Hg (1012.6 mb)
Winds:from the N (10 degrees) at 9 MPH (8 knots; 4.1 m/s) gusting to 16 MPH (14 knots; 7.2 m/s)
Visibility:10 or more sm (16+ km)
Ceiling:1700 feet AGL
Clouds: broken clouds at 1700 feet AGL, broken clouds at 2400 feet AGL, overcast cloud deck at 4100 feet AGL
QC Flag:automated observation with no human augmentation
Text:KW22 260235Z AUTO 36010KT 10SM SCT016 BKN022 OVC041 10/08 A2990 RMK AO2
Temperature: 10.0°C ( 50°F)
Dewpoint: 8.0°C ( 46°F) [RH = 87%]
Pressure (altimeter):29.90 inches Hg (1012.6 mb)
Winds:from the N (360 degrees) at 12 MPH (10 knots; 5.1 m/s)
Visibility:10 or more sm (16+ km)
Ceiling:2200 feet AGL
Clouds: scattered clouds at 1600 feet AGL, broken clouds at 2200 feet AGL, overcast cloud deck at 4100 feet AGL
QC Flag:automated observation with no human augmentation
Text:KW22 260215Z AUTO 34006KT 10SM SCT016 BKN021 OVC025 10/09 A2990 RMK AO2
Temperature: 10.0°C ( 50°F)
Dewpoint: 9.0°C ( 48°F) [RH = 93%]
Pressure (altimeter):29.90 inches Hg (1012.6 mb)
Winds:from the NNW (340 degrees) at 7 MPH (6 knots; 3.1 m/s)
Visibility:10 or more sm (16+ km)
Ceiling:2100 feet AGL
Clouds: scattered clouds at 1600 feet AGL, broken clouds at 2100 feet AGL, overcast cloud deck at 2500 feet AGL
QC Flag:automated observation with no human augmentation
Text:KW22 260155Z AUTO 36008KT 10SM SCT015 OVC021 10/09 A2990 RMK AO2
Temperature: 10.0°C ( 50°F)
Dewpoint: 9.0°C ( 48°F) [RH = 93%]
Pressure (altimeter):29.90 inches Hg (1012.6 mb)
Winds:from the N (360 degrees) at 9 MPH (8 knots; 4.1 m/s)
Visibility:10 or more sm (16+ km)
Ceiling:2100 feet AGL
Clouds: scattered clouds at 1500 feet AGL, overcast cloud deck at 2100 feet AGL
QC Flag:automated observation with no human augmentation
Text:KW22 260135Z AUTO 35009G16KT 5SM BR BKN014 OVC020 10/09 A2989 RMK AO2
Temperature: 10.0°C ( 50°F)
Dewpoint: 9.0°C ( 48°F) [RH = 93%]
Pressure (altimeter):29.89 inches Hg (1012.3 mb)
Winds:from the N (350 degrees) at 10 MPH (9 knots; 4.6 m/s) gusting to 18 MPH (16 knots; 8.2 m/s)
Visibility: 5 sm ( 8 km)
Ceiling:1400 feet AGL
Clouds: broken clouds at 1400 feet AGL, overcast cloud deck at 2000 feet AGL
Weather:BR (mist)
QC Flag:automated observation with no human augmentation
Text:KW22 260115Z AUTO 33010G18KT 10SM BKN013 OVC019 11/10 A2988 RMK AO2
Temperature: 11.0°C ( 52°F)
Dewpoint: 10.0°C ( 50°F) [RH = 94%]
Pressure (altimeter):29.88 inches Hg (1011.9 mb)
Winds:from the NNW (330 degrees) at 12 MPH (10 knots; 5.1 m/s) gusting to 21 MPH (18 knots; 9.3 m/s)
Visibility:10 or more sm (16+ km)
Ceiling:1300 feet AGL
Clouds: broken clouds at 1300 feet AGL, overcast cloud deck at 1900 feet AGL
QC Flag:automated observation with no human augmentation
Text:KW22 260055Z AUTO 33008G15KT 10SM SCT011 BKN017 OVC028 11/11 A2988 RMK AO2
Temperature: 11.0°C ( 52°F)
Dewpoint: 11.0°C ( 52°F) [RH = 100%]
Pressure (altimeter):29.88 inches Hg (1011.9 mb)
Winds:from the NNW (330 degrees) at 9 MPH (8 knots; 4.1 m/s) gusting to 17 MPH (15 knots; 7.7 m/s)
Visibility:10 or more sm (16+ km)
Ceiling:1700 feet AGL
Clouds: scattered clouds at 1100 feet AGL, broken clouds at 1700 feet AGL, overcast cloud deck at 2800 feet AGL
QC Flag:automated observation with no human augmentation